NCAR-RAP Real-Time Weather Data

Output produced by METARs form (24 April 2018  16:13 UTC)
found at http://weather.rap.ucar.edu/surface/
 
RJFO 241300Z 32010KT 300V010 9999 -SHRA FEW010 BKN035 15/14 Q1003
RJFO 241217Z 32013G25KT 270V010 6000 -SHRA FEW015 BKN030 BKN035 15/14 Q1003 RMK 1CU015 6CU030 7CU035 A2964
RJFO 241200Z 32011G21KT 290V010 5000 SHRA BR FEW010 BKN025 BKN030 16/15 Q1003
RJFO 241141Z 32008KT 290V350 7000 SHRA FEW008 BKN023 BKN030 16/15 Q1003 RMK 1ST008 5CU023 7CU030 A2964
RJFO 241100Z 31011KT 3500 SHRA BR FEW008 BKN020 BKN025 17/16 Q1003
RJFO 241000Z 32007KT 280V340 4500 SHRA BR FEW007 BKN015 BKN020 18/17 Q1003
RJFO 240943Z 32006KT 4000 SHRA BR FEW005 BKN015 BKN020 18/17 Q1003 RMK 1ST005 6CU015 7CU020 A2963
RJFO 240923Z 32005KT 3000 SHRA BR FEW005 BKN015 18/18 Q1003 RMK 1ST005 7CU015 A2964
RJFO 240900Z 31006KT 270V340 4500 SHRA BR FEW004 SCT010 BKN015 18/18 Q1003
RJFO 240847Z 29008KT 260V320 5000 SHRA BR FEW004 SCT008 BKN010 19/19 Q1003 RMK 1ST004 3ST008 6ST010 A2964
RJFO 240837Z 28006KT 3000 SHRA BR FEW004 SCT007 BKN010 20/20 Q1003 RMK 1ST004 3ST007 6ST010 A2963
RJFO 240824Z VRB01KT 4000 SHRA BR FEW003 BKN010 BKN020 20/20 Q1003 RMK 1ST003 6ST010 7CU020 A2963
RJFO 240819Z VRB01KT 3000 -SHRA BR FEW003 BKN010 BKN020 20/20 Q1003 RMK 1ST003 5ST010 6CU020 A2963
RJFO 240808Z VRB01KT 4000 -SHRA BR FEW003 SCT020 BKN050 19/19 Q1003 RMK 1ST003 4CU020 7SC050 A2963
RJFO 240800Z VRB01KT 8000 -SHRA FEW003 SCT040 BKN050 20/20 Q1003
RJFO 240748Z VRB02KT 6000 -SHRA FEW003 SCT030 BKN050 19/19 Q1003 RMK 1ST003 4CU030 7SC050 A2963
RJFO 240733Z 20003KT 170V230 4000 -SHRA BR FEW003 SCT020 BKN030 19/19 Q1003 RMK 1ST003 4CU020 6CU030 A2963
RJFO 240710Z 21003KT 160V240 3000 SHRA BR FEW003 SCT025 BKN045 19/19 Q1003 RMK 1ST003 4CU025 6CU045 A2963
RJFO 240700Z 18003KT 150V210 4000 -SHRA BR FEW003 SCT040 BKN060 19/19 Q1003
RJFO 240642Z 20003KT 4000 -SHRA BR FEW005 SCT025 BKN050 19/19 Q1003 RMK 1ST005 4CU025 7SC050 A2964
RJFO 240600Z VRB02KT 5000 -RA BR FEW002 SCT020 BKN060 19/19 Q1004
RJFO 240539Z 20003KT 170V250 7000 -SHRA FEW005 SCT025 BKN035 19/19 Q1004 RMK 1ST005 3CU025 5CU035 A2965
RJFO 240500Z 15005KT 4000 -SHRA BR FEW002 SCT020 BKN035 18/17 Q1004
RJFO 240400Z 21009KT 7000 -SHRA FEW002 SCT035 BKN045 18/18 Q1005
RJFO 240347Z 21009KT 4500 -SHRA BR FEW002 SCT025 BKN035 18/18 Q1005 RMK 1ST002 3CU025 6CU035 A2969
RJFO 240325Z 14015KT 4500 -SHRA BR FEW002 SCT025 BKN035 18/18 Q1005 RMK 1ST002 4CU025 6CU035 A2969
RJFO 240310Z 14016KT 3000 -SHRA BR FEW002 SCT025 BKN040 18/18 Q1005 RMK 1ST002 3CU025 5CU040 A2970
RJFO 240300Z 14016KT 6000 -SHRA FEW002 SCT030 BKN040 18/18 Q1006
RJFO 240239Z 14017KT 2500 SHRA BR FEW003 SCT025 BKN040 18/18 Q1006 RMK 1ST003 4CU025 6CU040 A2972
RJFO 240217Z 14019KT 4000 -SHRA BR FEW003 SCT025 BKN040 18/18 Q1006 RMK 1ST003 3CU025 5CU040 A2972
RJFO 240200Z 14015KT 9999 -RA FEW003 SCT030 BKN070 18/18 Q1006
RJFO 240100Z 14014KT 9999 FEW003 SCT030 BKN100 18/17 Q1007
RJFO 240015Z 14012KT 7000 -RA FEW003 SCT030 BKN060 17/17 Q1008 RMK 2ST003 4CU030 6SC060 A2977
RJFO 240000Z 13013KT 2000 -RA BR FEW003 SCT030 BKN050 17/17 Q1008
RJFO 232349Z 14014KT 2000 -RA BR FEW003 SCT030 BKN050 17/17 Q1008 RMK 2ST003 4CU030 6SC050 A2977
RJFO 232339Z 14016KT 2500 -RA BR FEW003 SCT030 BKN050 17/17 Q1008 WS R19 RMK 2ST003 4CU030 6SC050 A2977
RJFO 232315Z 14014KT 3500 -RA BR FEW003 SCT040 BKN070 17/17 Q1008 RMK 2ST003 3CU040 6AC070 A2977
RJFO 232300Z 14013KT 5000 -RA BR FEW004 SCT040 BKN070 17/17 Q1008
RJFO 232200Z 14015KT 4000 -RA BR FEW003 SCT035 BKN060 17/17 Q1008
RJFO 231300Z 14012KT 9999 BKN035 BKN080 17/17 Q1014
RJFO 231200Z 15014KT 9999 FEW030 BKN080 BKN100 18/16 Q1014
RJFO 231100Z 14007KT 9999 FEW020 SCT080 BKN100 17/16 Q1014
RJFO 231000Z 14011KT 9999 FEW010 SCT090 BKN100 17/16 Q1014
RJFO 230900Z 14012KT 9999 FEW015 BKN070 17/16 Q1014
RJFO 230800Z 14012KT 9999 -RA FEW030 BKN050 BKN070 17/16 Q1013
RJFO 230700Z 14011KT 9999 -RA FEW030 SCT060 BKN080 17/16 Q1014
RJFO 230600Z 13014KT 9999 FEW030 BKN080 BKN100 19/16 Q1014
RJFO 230500Z 14013KT 9999 FEW030 SCT080 BKN110 19/16 Q1015
RJFO 230450Z 13013KT 9999 FEW030 SCT080 BKN110 18/16 Q1015 RMK 1CU030 3AC080 6AC110 A2998
RJFO 230400Z 10003KT 060V140 9999 FEW030 SCT080 BKN100 18/15 Q1016
RJFO 230300Z 04004KT 350V080 9999 FEW030 SCT070 BKN100 19/15 Q1016
RJFO 230200Z 04003KT 350V070 9999 FEW025 BKN035 BKN070 17/14 Q1017
RJFO 230100Z 04003KT 360V070 9999 FEW030 BKN060 BKN080 16/14 Q1017
RJFO 230000Z 05004KT 010V070 9999 FEW030 BKN080 BKN090 16/14 Q1017
RJFO 222300Z 03006KT 9999 FEW015 SCT030 BKN090 17/14 Q1018
RJFO 222200Z VRB02KT 8000 FEW030 BKN090 BKN130 16/15 Q1018
RJFO 221300Z 24003KT 200V270 CAVOK 17/14 Q1017
RJFO 221200Z 21005KT 180V250 CAVOK 18/14 Q1017
RJFO 221100Z VRB02KT CAVOK 19/14 Q1017
RJFO 221000Z VRB02KT 9999 FEW035 19/14 Q1016
RJFO 220900Z VRB03KT 9999 FEW035 18/14 Q1017
RJFO 220800Z 03005KT 360V070 9999 FEW030 19/14 Q1017
RJFO 220700Z 03007KT 9999 FEW030 19/14 Q1017
RJFO 220600Z 11004KT 030V160 9999 FEW030 21/14 Q1017
RJFO 220500Z 04006KT 9999 FEW025 20/13 Q1018